Terminal Aerodrome Forecast
Issued by NWS Portland, OR

Home | Current Version | Previous Version | Text Only | Print | Product List | Glossary On
Versions: 1 2 3 4 5 6 7 8 9 10 11 12 13 14 15 16 17 18 19 20 21 22 23
000
FTUS46 KPQR 282338
TAFSLE
TAF
KSLE 282338Z 2900/2924 VRB05KT P6SM SCT040 OVC120
     FM290900 16008KT P6SM -RA BKN040 OVC060
     FM291200 17015G25KT P6SM -RA SCT025 OVC050
     FM291500 18022G30KT P6SM -RA SCT025 OVC050
     FM291900 22014G23KT P6SM -RA SCT025 OVC040=

USA.gov is the U.S. government's official web portal to all federal, state and local government web resources and services.